createdAt,value
2023-01-29T00:00:19.273Z,74.34
2023-01-29T00:02:47.860Z,74.18
2023-01-29T00:05:27.534Z,74.46
2023-01-29T00:07:56.796Z,74.78
2023-01-29T00:10:27.189Z,75.08
2023-01-29T00:12:55.767Z,74.67
2023-01-29T00:15:24.292Z,74.94
2023-01-29T00:17:52.581Z,74.97
2023-01-29T00:20:21.005Z,74.69
2023-01-29T00:22:49.488Z,74.45
2023-01-29T00:25:18.090Z,74.67
2023-01-29T00:27:47.886Z,74.59
2023-01-29T00:30:19.612Z,74.46
2023-01-29T00:32:48.703Z,74.76
2023-01-29T00:35:17.247Z,74.72
2023-01-29T00:37:45.944Z,74.61
2023-01-29T00:40:15.415Z,74.39
2023-01-29T00:43:04.970Z,74.79
2023-01-29T00:45:34.074Z,74.86
2023-01-29T00:48:02.583Z,74.74
2023-01-29T00:50:31.650Z,75.17
2023-01-29T00:53:00.150Z,74.73
2023-01-29T00:55:28.445Z,74.87
2023-01-29T00:57:58.311Z,74.53
2023-01-29T01:00:26.840Z,74.40
2023-01-29T01:03:06.246Z,74.27
2023-01-29T01:05:36.776Z,74.33
2023-01-29T01:08:25.820Z,74.37
2023-01-29T01:11:00.478Z,74.45
2023-01-29T01:13:30.543Z,74.20
2023-01-29T01:15:59.314Z,73.96
2023-01-29T01:18:32.390Z,74.44
2023-01-29T01:21:00.756Z,74.37
2023-01-29T01:23:29.188Z,74.67
2023-01-29T01:25:57.724Z,74.37
2023-01-29T01:28:26.347Z,74.25
2023-01-29T01:30:56.450Z,74.01
2023-01-29T01:33:25.454Z,74.14
2023-01-29T01:35:53.947Z,73.63
2023-01-29T01:38:22.756Z,73.73
2023-01-29T01:40:51.039Z,73.73
2023-01-29T01:43:19.570Z,73.80
2023-01-29T01:45:48.499Z,73.51
2023-01-29T01:48:21.925Z,73.68
2023-01-29T01:50:55.315Z,73.84
2023-01-29T01:53:29.815Z,73.82
2023-01-29T01:56:03.627Z,74.06
2023-01-29T01:58:36.161Z,74.16
2023-01-29T02:01:06.008Z,74.27
2023-01-29T02:04:01.409Z,74.31
2023-01-29T02:06:47.811Z,73.90
2023-01-29T02:09:35.280Z,73.78
2023-01-29T02:12:05.180Z,73.88
2023-01-29T02:14:38.794Z,73.78
2023-01-29T02:17:09.236Z,73.85
2023-01-29T02:19:49.500Z,73.83
2023-01-29T02:22:42.695Z,74.23
2023-01-29T02:25:41.585Z,73.39
2023-01-29T02:28:33.606Z,73.80
2023-01-29T02:31:12.083Z,73.68
2023-01-29T02:33:53.952Z,73.76
2023-01-29T02:36:42.610Z,73.66
2023-01-29T02:39:18.646Z,73.44
2023-01-29T02:41:56.325Z,73.46
2023-01-29T02:44:35.380Z,73.91
2023-01-29T02:47:10.287Z,73.83
2023-01-29T02:49:48.043Z,73.78
2023-01-29T02:52:20.464Z,73.66
2023-01-29T02:54:56.521Z,73.88
2023-01-29T02:57:29.996Z,73.79
2023-01-29T03:00:06.980Z,73.99
2023-01-29T03:02:43.981Z,74.21
2023-01-29T03:05:18.764Z,74.39
2023-01-29T03:07:52.060Z,74.00
2023-01-29T03:10:34.325Z,73.49
2023-01-29T03:13:08.407Z,73.59
2023-01-29T03:15:47.368Z,73.58
2023-01-29T03:18:43.608Z,73.29
2023-01-29T03:21:37.369Z,73.57
2023-01-29T03:24:28.017Z,73.55
2023-01-29T03:27:17.463Z,73.26
2023-01-29T03:30:06.165Z,72.90
2023-01-29T03:32:57.963Z,73.46
2023-01-29T03:35:35.347Z,73.22
2023-01-29T03:38:05.472Z,73.61
2023-01-29T03:40:41.371Z,73.57
2023-01-29T03:43:15.971Z,73.28
2023-01-29T03:45:53.544Z,73.50
2023-01-29T03:48:35.236Z,73.91
2023-01-29T03:51:21.549Z,73.62
2023-01-29T03:53:55.131Z,73.03
2023-01-29T03:56:40.469Z,73.10
2023-01-29T03:59:24.087Z,73.21
2023-01-29T04:02:10.322Z,73.48
2023-01-29T04:04:45.470Z,73.57
2023-01-29T04:07:17.446Z,73.60
2023-01-29T04:09:51.042Z,73.86
2023-01-29T04:12:27.055Z,73.72
2023-01-29T04:14:57.023Z,74.18
2023-01-29T04:17:32.947Z,73.63
2023-01-29T04:20:15.283Z,73.97
2023-01-29T04:22:48.201Z,73.86
2023-01-29T04:25:19.318Z,73.89
2023-01-29T04:27:59.242Z,74.10
2023-01-29T04:30:40.082Z,73.41
2023-01-29T04:33:22.815Z,73.82
2023-01-29T04:36:08.999Z,73.55
2023-01-29T04:38:52.621Z,73.34
2023-01-29T04:41:26.761Z,73.29
2023-01-29T04:44:04.712Z,73.45
2023-01-29T04:46:43.623Z,73.49
2023-01-29T04:49:24.708Z,73.50
2023-01-29T04:52:02.788Z,73.73
2023-01-29T04:54:54.176Z,73.26
2023-01-29T04:57:28.159Z,73.51
2023-01-29T05:00:01.735Z,73.36
2023-01-29T05:02:31.731Z,73.15
2023-01-29T05:05:00.479Z,73.42
2023-01-29T05:07:32.138Z,73.31
2023-01-29T05:10:01.374Z,73.40
2023-01-29T05:12:31.650Z,73.80
2023-01-29T05:15:05.880Z,73.75
2023-01-29T05:17:34.342Z,74.09
2023-01-29T05:20:02.685Z,74.08
2023-01-29T05:22:32.617Z,73.37
2023-01-29T05:25:01.044Z,73.50
2023-01-29T05:27:53.424Z,73.83
2023-01-29T05:30:21.815Z,74.18
2023-01-29T05:32:50.089Z,74.35
2023-01-29T05:35:18.437Z,74.40
2023-01-29T05:37:47.982Z,74.29
2023-01-29T05:40:17.232Z,73.93
2023-01-29T05:42:45.993Z,74.55
2023-01-29T05:45:14.436Z,74.35
2023-01-29T05:47:42.790Z,74.27
2023-01-29T05:50:12.890Z,74.05
2023-01-29T05:52:41.578Z,74.22
2023-01-29T05:55:11.891Z,74.34
2023-01-29T05:57:41.618Z,74.21
2023-01-29T06:00:13.078Z,74.74
2023-01-29T06:02:41.398Z,74.44
2023-01-29T06:05:10.474Z,74.16
2023-01-29T06:07:41.712Z,74.06
2023-01-29T06:10:13.931Z,74.53
2023-01-29T06:12:43.093Z,74.56
2023-01-29T06:15:15.517Z,74.68
2023-01-29T06:17:44.300Z,74.98
2023-01-29T06:20:13.607Z,74.90
2023-01-29T06:22:41.875Z,74.96
2023-01-29T06:25:12.203Z,75.36
2023-01-29T06:27:40.419Z,75.07
2023-01-29T06:30:10.659Z,74.63
2023-01-29T06:32:39.083Z,74.57
2023-01-29T06:35:09.884Z,74.26
2023-01-29T06:37:38.704Z,74.51
2023-01-29T06:40:08.997Z,74.38
2023-01-29T06:42:38.623Z,74.48
2023-01-29T06:45:08.299Z,74.63
2023-01-29T06:47:36.870Z,74.47
2023-01-29T06:50:05.901Z,74.61
2023-01-29T06:52:34.429Z,73.83
2023-01-29T06:55:02.834Z,73.88
2023-01-29T06:57:31.097Z,74.54
2023-01-29T07:00:00.785Z,74.34
2023-01-29T07:02:30.191Z,74.70
2023-01-29T07:04:58.446Z,74.72
2023-01-29T07:07:26.845Z,74.62
2023-01-29T07:09:55.057Z,74.70
2023-01-29T07:12:23.304Z,75.08
2023-01-29T07:14:51.690Z,75.12
2023-01-29T07:17:21.599Z,74.48
2023-01-29T07:19:50.091Z,74.74
2023-01-29T07:22:18.355Z,74.21
2023-01-29T07:24:48.471Z,74.32
2023-01-29T07:27:16.806Z,74.47
2023-01-29T07:29:45.125Z,74.57
2023-01-29T07:32:13.576Z,75.03
2023-01-29T07:34:43.394Z,75.17
2023-01-29T07:37:12.859Z,75.66
2023-01-29T07:39:41.103Z,75.44
2023-01-29T07:42:09.557Z,75.02
2023-01-29T07:44:37.819Z,74.87
2023-01-29T07:47:06.530Z,74.82
2023-01-29T07:49:34.993Z,74.63
2023-01-29T07:52:04.939Z,74.34
2023-01-29T07:54:33.606Z,74.37
2023-01-29T07:57:02.105Z,74.60
2023-01-29T07:59:30.419Z,74.65
2023-01-29T08:01:58.822Z,74.83
2023-01-29T08:04:27.144Z,74.92
2023-01-29T08:06:55.648Z,75.50
2023-01-29T08:09:25.324Z,75.29
2023-01-29T08:11:53.724Z,74.44
2023-01-29T08:14:22.049Z,74.19
2023-01-29T08:16:50.564Z,73.80
2023-01-29T08:19:18.985Z,73.81
2023-01-29T08:21:47.287Z,73.46
2023-01-29T08:24:15.553Z,73.59
2023-01-29T08:26:45.252Z,73.89
2023-01-29T08:29:14.048Z,73.98
2023-01-29T08:31:42.523Z,73.90
2023-01-29T08:34:10.929Z,74.12
2023-01-29T08:36:39.245Z,74.47
2023-01-29T08:39:07.585Z,73.72
2023-01-29T08:41:35.969Z,73.79
2023-01-29T08:44:06.516Z,73.71
2023-01-29T08:46:34.896Z,73.33
2023-01-29T08:49:03.374Z,73.57
2023-01-29T08:51:31.614Z,73.51
2023-01-29T08:54:00.206Z,73.45
2023-01-29T08:56:28.535Z,73.47
2023-01-29T08:58:58.327Z,74.37
2023-01-29T09:01:28.691Z,73.99
2023-01-29T09:03:56.993Z,74.25
2023-01-29T09:06:25.351Z,74.54
2023-01-29T09:08:54.062Z,75.02
2023-01-29T09:11:22.471Z,74.30
2023-01-29T09:13:50.825Z,73.96
2023-01-29T09:16:19.106Z,74.35
2023-01-29T09:18:48.687Z,74.21
2023-01-29T09:21:16.948Z,74.16
2023-01-29T09:23:45.250Z,73.78
2023-01-29T09:26:13.648Z,73.75
2023-01-29T09:28:41.929Z,73.63
2023-01-29T09:31:10.242Z,73.85
2023-01-29T09:33:38.643Z,73.84
2023-01-29T09:36:09.515Z,73.74
2023-01-29T09:38:37.770Z,73.73
2023-01-29T09:41:21.462Z,73.24
2023-01-29T09:43:54.731Z,73.16
2023-01-29T09:46:29.702Z,73.66
2023-01-29T09:49:02.543Z,73.95
2023-01-29T09:51:39.757Z,73.56
2023-01-29T09:54:20.050Z,73.68
2023-01-29T09:56:51.978Z,73.65
2023-01-29T09:59:23.838Z,73.64
2023-01-29T10:02:05.872Z,73.48
2023-01-29T10:05:07.029Z,73.19
2023-01-29T10:08:08.649Z,73.63
2023-01-29T10:10:49.753Z,72.51
2023-01-29T10:13:30.171Z,72.53
2023-01-29T10:16:20.301Z,71.80
2023-01-29T10:19:20.039Z,69.19
2023-01-29T10:22:24.473Z,68.52
2023-01-29T10:24:58.269Z,68.02
2023-01-29T10:27:35.617Z,68.16
2023-01-29T10:30:10.011Z,68.67
2023-01-29T10:32:39.440Z,69.12
2023-01-29T10:35:25.339Z,68.58
2023-01-29T10:37:55.073Z,68.33
2023-01-29T10:40:33.580Z,68.01
2023-01-29T10:43:07.778Z,67.75
2023-01-29T10:45:45.529Z,68.41
2023-01-29T10:48:49.662Z,69.68
2023-01-29T10:51:36.176Z,69.54
2023-01-29T10:54:22.784Z,68.80
2023-01-29T10:57:08.341Z,68.52
2023-01-29T10:59:54.263Z,69.08
2023-01-29T11:02:23.110Z,69.54
2023-01-29T11:04:51.550Z,69.20
2023-01-29T11:07:23.179Z,69.02
2023-01-29T11:09:58.450Z,68.17
2023-01-29T11:12:32.004Z,67.64
2023-01-29T11:15:05.640Z,68.50
2023-01-29T11:17:34.053Z,68.75
2023-01-29T11:20:02.439Z,67.29
2023-01-29T11:22:32.090Z,66.93
2023-01-29T11:25:17.583Z,67.33
2023-01-29T11:27:48.086Z,68.08
2023-01-29T11:30:23.305Z,67.04
2023-01-29T11:32:59.192Z,66.90
2023-01-29T11:35:30.119Z,67.57
2023-01-29T11:38:10.759Z,67.85
2023-01-29T11:40:41.348Z,68.19
2023-01-29T11:43:30.797Z,68.16
2023-01-29T11:46:03.178Z,68.24
2023-01-29T11:48:42.009Z,68.27
2023-01-29T11:51:14.035Z,67.35
2023-01-29T11:53:45.760Z,67.65
2023-01-29T11:56:25.772Z,66.75
2023-01-29T11:58:57.706Z,66.48
2023-01-29T12:01:34.468Z,66.45
2023-01-29T12:04:04.127Z,66.28
2023-01-29T12:06:36.515Z,66.60
2023-01-29T12:09:14.451Z,66.58
2023-01-29T12:11:44.577Z,66.05
2023-01-29T12:14:30.005Z,65.18
2023-01-29T12:17:03.139Z,65.37
2023-01-29T12:19:39.372Z,65.51
2023-01-29T12:22:16.588Z,64.90
2023-01-29T12:24:54.967Z,64.84
2023-01-29T12:27:29.717Z,64.87
2023-01-29T12:30:06.269Z,63.62
2023-01-29T12:32:45.677Z,63.74
2023-01-29T12:35:22.517Z,62.91
2023-01-29T12:37:57.606Z,62.80
2023-01-29T12:40:28.087Z,63.68
2023-01-29T12:43:03.764Z,63.31
2023-01-29T12:45:37.433Z,62.17
2023-01-29T12:48:10.321Z,61.08
2023-01-29T12:50:39.714Z,62.35
2023-01-29T12:53:24.261Z,62.47
2023-01-29T12:55:56.375Z,62.26
2023-01-29T12:58:30.165Z,62.16
2023-01-29T13:01:06.349Z,61.33
2023-01-29T13:03:40.580Z,61.31
2023-01-29T13:06:13.901Z,61.59
2023-01-29T13:08:46.881Z,61.29
2023-01-29T13:11:22.227Z,60.08
2023-01-29T13:13:55.465Z,59.99
2023-01-29T13:16:31.520Z,59.65
2023-01-29T13:19:04.043Z,60.17
2023-01-29T13:21:39.080Z,59.33
2023-01-29T13:24:13.097Z,59.31
2023-01-29T13:26:42.398Z,59.44
2023-01-29T13:29:24.150Z,58.84
2023-01-29T13:31:55.643Z,59.19
2023-01-29T13:34:28.377Z,59.02
2023-01-29T13:37:00.519Z,58.30
2023-01-29T13:39:32.348Z,58.30
2023-01-29T13:42:02.590Z,58.05
2023-01-29T13:44:39.090Z,58.42
2023-01-29T13:47:11.617Z,58.39
2023-01-29T13:49:43.697Z,58.08
2023-01-29T13:52:35.755Z,58.29
2023-01-29T13:55:07.394Z,57.99
2023-01-29T13:57:56.552Z,58.39
2023-01-29T14:00:59.144Z,58.22
2023-01-29T14:04:03.657Z,59.06
2023-01-29T14:06:42.992Z,58.36
2023-01-29T14:10:06.040Z,59.19
2023-01-29T14:12:47.232Z,58.86
2023-01-29T14:15:39.257Z,58.90
2023-01-29T14:18:22.389Z,59.71
2023-01-29T14:21:02.360Z,59.65
2023-01-29T14:23:47.763Z,59.89
2023-01-29T14:26:31.348Z,59.47
2023-01-29T14:29:08.555Z,59.75
2023-01-29T14:31:45.909Z,59.40
2023-01-29T14:34:26.909Z,59.90
2023-01-29T14:36:59.251Z,59.81
2023-01-29T14:39:36.976Z,59.66
2023-01-29T14:42:21.992Z,59.44
2023-01-29T14:45:02.506Z,59.24
2023-01-29T14:48:14.455Z,58.70
2023-01-29T14:50:59.158Z,58.64
2023-01-29T14:53:45.755Z,58.65
2023-01-29T14:56:18.813Z,58.67
2023-01-29T14:58:51.260Z,58.13
2023-01-29T15:01:25.057Z,58.35
2023-01-29T15:04:05.309Z,57.83
2023-01-29T15:06:42.440Z,57.75
2023-01-29T15:09:16.575Z,58.78
2023-01-29T15:11:51.438Z,58.09
2023-01-29T15:14:30.080Z,57.83
2023-01-29T15:17:18.861Z,57.11
2023-01-29T15:19:49.548Z,57.00
2023-01-29T15:22:20.171Z,56.09
2023-01-29T15:25:07.265Z,55.66
2023-01-29T15:27:36.175Z,55.66
2023-01-29T15:30:09.052Z,55.57
2023-01-29T15:32:40.859Z,55.15
2023-01-29T15:35:11.900Z,55.23
2023-01-29T15:37:41.294Z,55.20
2023-01-29T15:40:17.954Z,55.18
2023-01-29T15:42:48.917Z,55.66
2023-01-29T15:45:31.047Z,55.54
2023-01-29T15:48:08.519Z,55.30
2023-01-29T15:50:41.335Z,55.20
2023-01-29T15:53:15.468Z,55.19
2023-01-29T15:55:45.994Z,54.80
2023-01-29T15:58:19.089Z,54.61
2023-01-29T16:00:51.930Z,55.54
2023-01-29T16:03:24.773Z,55.82
2023-01-29T16:05:54.033Z,56.21
2023-01-29T16:08:23.511Z,56.71
2023-01-29T16:10:57.451Z,56.96
2023-01-29T16:13:29.463Z,57.53
2023-01-29T16:16:00.963Z,57.71
2023-01-29T16:18:35.164Z,57.92
2023-01-29T16:21:09.031Z,58.41
2023-01-29T16:23:43.393Z,58.78
2023-01-29T16:26:20.203Z,58.95
2023-01-29T16:28:49.361Z,59.01
2023-01-29T16:31:25.217Z,59.52
2023-01-29T16:33:53.903Z,59.88
2023-01-29T16:36:25.555Z,59.74
2023-01-29T16:38:57.814Z,59.92
2023-01-29T16:41:36.156Z,59.56
2023-01-29T16:44:07.709Z,59.33
2023-01-29T16:46:38.332Z,59.54
2023-01-29T16:49:36.880Z,59.65
2023-01-29T16:52:19.514Z,60.03
2023-01-29T16:54:47.985Z,59.99
2023-01-29T16:57:21.452Z,60.64
2023-01-29T16:59:50.971Z,60.55
2023-01-29T17:02:25.888Z,60.66
2023-01-29T17:04:58.701Z,60.79
2023-01-29T17:07:27.509Z,61.25
2023-01-29T17:10:00.186Z,61.52
2023-01-29T17:12:32.680Z,60.97
2023-01-29T17:15:03.467Z,61.52
2023-01-29T17:17:33.573Z,61.30
2023-01-29T17:20:14.728Z,61.39
2023-01-29T17:22:44.677Z,62.03
2023-01-29T17:25:17.026Z,61.79
2023-01-29T17:27:51.651Z,62.32
2023-01-29T17:30:22.294Z,62.78
2023-01-29T17:32:50.768Z,62.61
2023-01-29T17:35:19.429Z,62.81
2023-01-29T17:37:48.274Z,62.90
2023-01-29T17:40:32.508Z,62.95
2023-01-29T17:43:02.317Z,63.10
2023-01-29T17:45:30.731Z,63.58
2023-01-29T17:47:59.567Z,63.73
2023-01-29T17:50:31.696Z,63.80
2023-01-29T17:53:00.112Z,63.24
2023-01-29T17:55:28.432Z,63.66
2023-01-29T17:57:56.903Z,63.21
2023-01-29T18:00:26.635Z,64.10
2023-01-29T18:02:55.019Z,63.46
2023-01-29T18:05:23.307Z,63.72
2023-01-29T18:07:54.595Z,63.64
2023-01-29T18:10:25.286Z,64.34
2023-01-29T18:12:53.585Z,64.31
2023-01-29T18:15:22.084Z,64.35
2023-01-29T18:17:52.930Z,64.97
2023-01-29T18:20:25.765Z,65.01
2023-01-29T18:22:55.136Z,65.11
2023-01-29T18:25:24.917Z,65.35
2023-01-29T18:27:54.382Z,64.71
2023-01-29T18:30:22.917Z,65.89
2023-01-29T18:32:53.315Z,66.04
2023-01-29T18:35:22.454Z,65.93
2023-01-29T18:37:51.454Z,66.86
2023-01-29T18:40:20.155Z,67.12
2023-01-29T18:42:48.732Z,67.44
2023-01-29T18:45:17.391Z,66.67
2023-01-29T18:47:46.032Z,66.49
2023-01-29T18:50:15.746Z,67.75
2023-01-29T18:52:45.361Z,67.03
2023-01-29T18:55:13.917Z,67.70
2023-01-29T18:58:28.095Z,67.51
2023-01-29T19:00:30.723Z,68.05
2023-01-29T19:02:59.148Z,68.20
2023-01-29T19:05:28.962Z,68.02
2023-01-29T19:07:57.499Z,67.77
2023-01-29T19:10:26.016Z,68.53
2023-01-29T19:12:54.386Z,68.96
2023-01-29T19:15:23.036Z,69.12
2023-01-29T19:17:52.054Z,69.36
2023-01-29T19:20:20.944Z,68.81
2023-01-29T19:22:50.881Z,68.67
2023-01-29T19:25:20.484Z,69.53
2023-01-29T19:27:48.986Z,69.42
2023-01-29T19:30:18.056Z,69.79
2023-01-29T19:32:46.553Z,69.15
2023-01-29T19:35:15.873Z,70.25
2023-01-29T19:37:44.642Z,69.54
2023-01-29T19:40:14.961Z,70.14
2023-01-29T19:42:43.562Z,70.01
2023-01-29T19:45:12.222Z,70.61
2023-01-29T19:47:41.901Z,70.46
2023-01-29T19:50:12.566Z,70.22
2023-01-29T19:52:56.580Z,70.36
2023-01-29T19:55:26.692Z,70.14
2023-01-29T19:57:58.367Z,70.90
2023-01-29T20:00:26.882Z,70.42
2023-01-29T20:02:55.207Z,70.60
2023-01-29T20:05:24.029Z,71.10
2023-01-29T20:07:52.338Z,71.26
2023-01-29T20:10:21.244Z,71.48
2023-01-29T20:12:50.892Z,71.33
2023-01-29T20:15:19.372Z,71.54
2023-01-29T20:17:47.745Z,71.38
2023-01-29T20:20:17.605Z,71.75
2023-01-29T20:22:46.256Z,71.81
2023-01-29T20:25:16.759Z,72.08
2023-01-29T20:27:45.286Z,71.93
2023-01-29T20:30:19.378Z,72.30
2023-01-29T20:32:50.737Z,72.84
2023-01-29T20:35:19.168Z,72.42
2023-01-29T20:37:47.566Z,72.82
2023-01-29T20:40:16.709Z,73.29
2023-01-29T20:42:45.736Z,72.94
2023-01-29T20:45:16.247Z,73.52
2023-01-29T20:47:44.838Z,73.90
2023-01-29T20:50:15.707Z,73.93
2023-01-29T20:52:44.682Z,74.42
2023-01-29T20:55:14.656Z,74.46
2023-01-29T20:57:43.461Z,75.04
2023-01-29T21:00:17.630Z,75.08
2023-01-29T21:02:46.515Z,75.47
2023-01-29T21:05:15.334Z,75.19
2023-01-29T21:07:43.791Z,75.59
2023-01-29T21:10:13.107Z,75.41
2023-01-29T21:12:41.696Z,75.50
2023-01-29T21:15:11.852Z,75.39
2023-01-29T21:17:41.730Z,75.70
2023-01-29T21:20:12.204Z,75.25
2023-01-29T21:22:42.436Z,75.53
2023-01-29T21:25:11.886Z,75.59
2023-01-29T21:27:40.222Z,75.32
2023-01-29T21:30:10.479Z,75.56
2023-01-29T21:32:38.932Z,75.92
2023-01-29T21:35:10.187Z,75.93
2023-01-29T21:37:38.870Z,75.67
2023-01-29T21:40:09.956Z,75.92
2023-01-29T21:42:56.096Z,75.96
2023-01-29T21:45:24.666Z,76.34
2023-01-29T21:47:53.013Z,76.22
2023-01-29T21:50:23.345Z,76.52
2023-01-29T21:52:51.705Z,76.72
2023-01-29T21:55:20.136Z,77.05
2023-01-29T21:57:48.692Z,76.95
2023-01-29T22:00:19.117Z,77.08
2023-01-29T22:02:47.656Z,77.25
2023-01-29T22:05:19.766Z,77.24
2023-01-29T22:07:50.689Z,77.38
2023-01-29T22:10:20.620Z,77.45
2023-01-29T22:12:49.445Z,77.85
2023-01-29T22:15:18.009Z,77.78
2023-01-29T22:17:49.463Z,78.04
2023-01-29T22:20:18.942Z,77.86
2023-01-29T22:22:48.857Z,77.92
2023-01-29T22:25:19.930Z,77.81
2023-01-29T22:27:48.310Z,78.00
2023-01-29T22:30:17.347Z,78.25
2023-01-29T22:32:45.973Z,78.31
2023-01-29T22:35:14.259Z,78.38
2023-01-29T22:37:42.695Z,78.29
2023-01-29T22:40:14.219Z,78.40
2023-01-29T22:42:42.689Z,78.53
2023-01-29T22:45:12.163Z,78.40
2023-01-29T22:47:40.593Z,78.79
2023-01-29T22:50:10.203Z,78.49
2023-01-29T22:52:42.746Z,78.91
2023-01-29T22:55:14.298Z,78.97
2023-01-29T22:57:42.568Z,79.25
2023-01-29T23:00:15.202Z,79.60
2023-01-29T23:02:43.486Z,79.70
2023-01-29T23:05:11.822Z,79.68
2023-01-29T23:07:40.206Z,79.71
2023-01-29T23:10:11.135Z,80.00
2023-01-29T23:12:40.905Z,79.88
2023-01-29T23:15:10.075Z,80.01
2023-01-29T23:17:39.564Z,80.07
2023-01-29T23:20:09.783Z,80.43
2023-01-29T23:22:38.551Z,80.37
2023-01-29T23:25:08.239Z,80.28
2023-01-29T23:27:35.719Z,80.26
2023-01-29T23:30:07.529Z,80.43
2023-01-29T23:32:36.272Z,80.31
2023-01-29T23:35:04.786Z,80.39
2023-01-29T23:37:33.102Z,80.41
2023-01-29T23:40:01.642Z,80.26
2023-01-29T23:42:29.881Z,80.90
2023-01-29T23:44:58.160Z,80.40
2023-01-29T23:47:27.785Z,80.39
2023-01-29T23:49:58.673Z,80.79
2023-01-29T23:52:27.213Z,80.68
2023-01-29T23:54:55.478Z,80.45
2023-01-29T23:57:23.995Z,80.18
2023-01-29T23:59:52.169Z,80.13
